Time,TemperatureF,DewpointF,PressureIn,WindDirection,WindDirectionDegrees,WindSpeedMPH,WindSpeedGustMPH,Humidity,HourlyPrecipIn,Conditions,Clouds,dailyrainin,SoftwareType,DateUTC
2013-06-04 00:03:00,53.1,48.7,29.47,SW,225,1.1,0.0,85,0.00,CLR,,0.00,WeatherDisplay:10.37,2013-06-04 07:03:00,
2013-06-04 00:08:00,53.1,49.3,29.47,SW,225,1.1,0.0,87,0.00,CLR,,0.00,WeatherDisplay:10.37,2013-06-04 07:08:00,
2013-06-04 00:13:00,53.1,49.3,29.47,SW,225,1.1,0.0,87,0.00,CLR,,0.00,WeatherDisplay:10.37,2013-06-04 07:13:00,
2013-06-04 00:18:00,53.1,49.3,29.47,SW,225,0.0,0.0,87,0.00,CLR,,0.00,WeatherDisplay:10.37,2013-06-04 07:18:00,
2013-06-04 00:23:00,52.9,49.1,29.47,SW,225,0.0,0.0,87,0.00,CLR,,0.00,WeatherDisplay:10.37,2013-06-04 07:23:00,
2013-06-04 00:28:00,52.5,48.8,29.47,NW,315,1.1,0.0,87,0.00,CLR,,0.00,WeatherDisplay:10.37,2013-06-04 07:28:00,
2013-06-04 00:33:00,52.5,48.8,29.47,West,270,1.1,0.0,87,0.00,CLR,,0.00,WeatherDisplay:10.37,2013-06-04 07:33:00,
2013-06-04 00:38:00,52.5,48.8,29.47,West,270,1.1,0.0,87,0.00,CLR,,0.00,WeatherDisplay:10.37,2013-06-04 07:38:00,
2013-06-04 00:43:00,52.5,49.1,29.47,West,270,1.1,0.0,88,0.00,CLR,,0.00,WeatherDisplay:10.37,2013-06-04 07:43:00,
2013-06-04 00:48:00,52.7,49.2,29.47,West,270,1.1,0.0,88,0.00,CLR,,0.00,WeatherDisplay:10.37,2013-06-04 07:48:00,
2013-06-04 00:53:00,52.5,48.8,29.48,West,270,0.0,0.0,87,0.00,CLR,,0.00,WeatherDisplay:10.37,2013-06-04 07:53:00,
2013-06-04 00:58:00,52.2,48.4,29.47,West,270,0.0,0.0,87,0.00,CLR,,0.00,WeatherDisplay:10.37,2013-06-04 07:58:00,
2013-06-04 01:03:00,52.0,48.2,29.47,West,270,0.0,0.0,87,0.00,CLR,,0.00,WeatherDisplay:10.37,2013-06-04 08:03:00,
2013-06-04 01:08:00,51.8,48.1,29.47,West,270,0.0,0.0,87,0.00,CLR,,0.00,WeatherDisplay:10.37,2013-06-04 08:08:00,
2013-06-04 01:13:00,51.6,48.2,29.47,North,0,1.1,0.0,88,0.00,CLR,,0.00,WeatherDisplay:10.37,2013-06-04 08:13:00,
2013-06-04 01:18:00,51.6,48.2,29.47,North,0,0.0,0.0,88,0.00,CLR,,0.00,WeatherDisplay:10.37,2013-06-04 08:18:00,
2013-06-04 01:23:00,51.4,48.0,29.47,West,270,1.1,1.6,88,0.00,CLR,,0.00,WeatherDisplay:10.37,2013-06-04 08:23:00,
2013-06-04 01:28:00,51.6,48.5,29.47,NW,315,0.0,0.0,89,0.00,CLR,,0.00,WeatherDisplay:10.37,2013-06-04 08:28:00,
2013-06-04 01:33:00,51.4,48.3,29.47,North,0,1.1,0.0,89,0.00,CLR,,0.00,WeatherDisplay:10.37,2013-06-04 08:33:00,
2013-06-04 01:38:00,51.3,48.1,29.47,North,0,0.0,0.0,89,0.00,CLR,,0.00,WeatherDisplay:10.37,2013-06-04 08:38:00,
2013-06-04 01:43:00,51.1,48.0,29.47,North,0,0.0,0.0,89,0.00,CLR,,0.00,WeatherDisplay:10.37,2013-06-04 08:43:00,
2013-06-04 01:48:00,51.1,48.0,29.47,North,0,1.1,0.0,89,0.00,CLR,,0.00,WeatherDisplay:10.37,2013-06-04 08:48:00,
2013-06-04 01:53:00,50.9,47.8,29.47,North,0,0.0,0.0,89,0.00,CLR,,0.00,WeatherDisplay:10.37,2013-06-04 08:53:00,
2013-06-04 01:58:00,50.7,47.6,29.47,North,0,0.0,0.0,89,0.00,CLR,,0.00,WeatherDisplay:10.37,2013-06-04 08:58:00,
2013-06-04 02:03:00,50.5,47.4,29.47,North,0,0.0,0.0,89,0.00,CLR,,0.00,WeatherDisplay:10.37,2013-06-04 09:03:00,
2013-06-04 02:08:00,50.5,47.4,29.47,North,0,0.0,0.0,89,0.00,CLR,,0.00,WeatherDisplay:10.37,2013-06-04 09:08:00,
2013-06-04 02:13:00,50.4,47.5,29.47,North,0,0.0,0.0,90,0.00,CLR,,0.00,WeatherDisplay:10.37,2013-06-04 09:13:00,
2013-06-04 02:18:00,50.2,47.4,29.47,North,0,0.0,0.0,90,0.00,CLR,,0.00,WeatherDisplay:10.37,2013-06-04 09:18:00,
2013-06-04 02:23:00,50.2,47.4,29.47,North,0,0.0,0.0,90,0.00,CLR,,0.00,WeatherDisplay:10.37,2013-06-04 09:23:00,
2013-06-04 02:28:00,50.2,47.4,29.48,North,0,0.0,0.0,90,0.00,CLR,,0.00,WeatherDisplay:10.37,2013-06-04 09:28:00,
2013-06-04 02:33:00,50.0,47.5,29.48,North,0,0.0,0.0,91,0.00,CLR,,0.00,WeatherDisplay:10.37,2013-06-04 09:33:00,
2013-06-04 02:38:00,50.0,47.5,29.47,North,0,0.0,0.0,91,0.00,CLR,,0.00,WeatherDisplay:10.37,2013-06-04 09:38:00,
2013-06-04 02:43:00,50.0,47.5,29.47,North,0,0.0,0.0,91,0.00,CLR,,0.00,WeatherDisplay:10.37,2013-06-04 09:43:00,
2013-06-04 02:48:00,49.8,47.3,29.47,North,0,0.0,0.0,91,0.00,CLR,,0.00,WeatherDisplay:10.37,2013-06-04 09:48:00,
2013-06-04 02:53:00,49.6,47.1,29.47,North,0,0.0,0.0,91,0.00,CLR,,0.00,WeatherDisplay:10.37,2013-06-04 09:53:00,
2013-06-04 02:58:00,49.6,47.1,29.47,North,0,0.0,0.0,91,0.00,CLR,,0.00,WeatherDisplay:10.37,2013-06-04 09:58:00,
2013-06-04 03:03:00,49.5,46.9,29.47,North,0,0.0,0.0,91,0.00,CLR,,0.00,WeatherDisplay:10.37,2013-06-04 10:03:00,
2013-06-04 03:08:00,49.5,47.2,29.48,North,0,0.0,0.0,92,0.00,CLR,,0.00,WeatherDisplay:10.37,2013-06-04 10:08:00,
2013-06-04 03:13:00,49.5,47.2,29.48,North,0,0.0,0.0,92,0.00,CLR,,0.00,WeatherDisplay:10.37,2013-06-04 10:13:00,
2013-06-04 03:18:00,49.5,47.2,29.48,East,90,1.1,0.0,92,0.00,CLR,,0.00,WeatherDisplay:10.37,2013-06-04 10:18:00,
2013-06-04 03:24:00,49.5,47.2,29.47,SE,135,1.1,0.0,92,0.00,CLR,,0.00,WeatherDisplay:10.37,2013-06-04 10:24:00,
2013-06-04 03:29:00,49.3,47.1,29.48,SE,135,1.1,0.0,92,0.00,CLR,,0.00,WeatherDisplay:10.37,2013-06-04 10:29:00,
2013-06-04 03:34:00,49.1,46.9,29.47,SE,135,1.1,0.0,92,0.00,CLR,,0.00,WeatherDisplay:10.37,2013-06-04 10:34:00,
2013-06-04 03:39:00,48.9,46.7,29.47,SE,135,0.0,0.0,92,0.00,CLR,,0.00,WeatherDisplay:10.37,2013-06-04 10:39:00,
2013-06-04 03:44:00,48.7,46.5,29.47,SE,135,0.0,0.0,92,0.00,CLR,,0.00,WeatherDisplay:10.37,2013-06-04 10:44:00,
2013-06-04 03:49:00,48.7,46.5,29.47,SE,135,0.0,0.0,92,0.00,CLR,,0.00,WeatherDisplay:10.37,2013-06-04 10:49:00,
2013-06-04 03:54:00,48.6,46.3,29.47,SE,135,0.0,0.0,92,0.00,CLR,,0.00,WeatherDisplay:10.37,2013-06-04 10:54:00,
2013-06-04 03:59:00,48.6,46.3,29.47,SE,135,0.0,0.0,92,0.00,CLR,,0.00,WeatherDisplay:10.37,2013-06-04 10:59:00,
2013-06-04 04:04:00,48.6,46.3,29.48,SE,135,0.0,0.0,92,0.00,CLR,,0.00,WeatherDisplay:10.37,2013-06-04 11:04:00,
2013-06-04 04:09:00,48.4,46.2,29.48,SE,135,0.0,0.0,92,0.00,CLR,,0.00,WeatherDisplay:10.37,2013-06-04 11:09:00,
2013-06-04 04:14:00,48.4,46.2,29.47,SE,135,0.0,0.0,92,0.00,CLR,,0.00,WeatherDisplay:10.37,2013-06-04 11:14:00,
2013-06-04 04:19:00,48.2,46.0,29.48,SE,135,0.0,0.0,92,0.00,CLR,,0.00,WeatherDisplay:10.37,2013-06-04 11:19:00,
2013-06-04 04:24:00,48.2,46.0,29.47,SE,135,1.1,0.0,92,0.00,CLR,,0.00,WeatherDisplay:10.37,2013-06-04 11:24:00,
2013-06-04 04:29:00,47.8,45.6,29.48,SE,135,0.0,0.0,92,0.00,CLR,,0.00,WeatherDisplay:10.37,2013-06-04 11:29:00,
2013-06-04 04:34:00,47.8,45.6,29.47,SE,135,0.0,0.0,92,0.00,CLR,,0.00,WeatherDisplay:10.37,2013-06-04 11:34:00,
2013-06-04 04:39:00,47.7,45.5,29.48,SE,135,0.0,0.0,92,0.00,CLR,,0.00,WeatherDisplay:10.37,2013-06-04 11:39:00,
2013-06-04 04:44:00,47.5,45.3,29.48,SE,135,0.0,0.0,92,0.00,CLR,,0.00,WeatherDisplay:10.37,2013-06-04 11:44:00,
2013-06-04 04:49:00,47.5,45.3,29.48,SE,135,0.0,0.0,92,0.00,CLR,,0.00,WeatherDisplay:10.37,2013-06-04 11:49:00,
2013-06-04 04:54:00,47.3,45.1,29.48,SE,135,0.0,0.0,92,0.00,CLR,,0.00,WeatherDisplay:10.37,2013-06-04 11:54:00,
2013-06-04 04:59:00,47.1,44.9,29.48,SE,135,0.0,0.0,92,0.00,CLR,,0.00,WeatherDisplay:10.37,2013-06-04 11:59:00,
2013-06-04 05:04:00,47.1,45.2,29.47,SE,135,0.0,0.0,93,0.00,CLR,,0.00,WeatherDisplay:10.37,2013-06-04 12:04:00,
2013-06-04 05:09:00,47.1,45.2,29.47,SE,135,1.1,0.0,93,0.00,CLR,,0.00,WeatherDisplay:10.37,2013-06-04 12:09:00,
2013-06-04 05:14:00,47.1,45.2,29.47,SE,135,0.0,0.0,93,0.00,CLR,,0.00,WeatherDisplay:10.37,2013-06-04 12:14:00,
2013-06-04 05:19:00,47.1,45.2,29.47,SE,135,0.0,0.0,93,0.00,CLR,,0.00,WeatherDisplay:10.37,2013-06-04 12:19:00,
2013-06-04 05:24:00,46.9,45.0,29.47,SE,135,0.0,0.0,93,0.00,CLR,,0.00,WeatherDisplay:10.37,2013-06-04 12:24:00,
2013-06-04 05:29:00,46.9,45.0,29.47,SE,135,0.0,0.0,93,0.00,CLR,,0.00,WeatherDisplay:10.37,2013-06-04 12:29:00,
2013-06-04 05:34:00,46.9,45.0,29.47,SE,135,0.0,0.0,93,0.00,CLR,,0.00,WeatherDisplay:10.37,2013-06-04 12:34:00,
2013-06-04 05:39:00,46.8,44.8,29.47,SE,135,0.0,0.0,93,0.00,CLR,,0.00,WeatherDisplay:10.37,2013-06-04 12:39:00,
2013-06-04 05:44:00,46.8,44.8,29.47,SE,135,0.0,0.0,93,0.00,CLR,,0.00,WeatherDisplay:10.37,2013-06-04 12:44:00,
2013-06-04 05:49:00,46.8,44.8,29.47,SE,135,0.0,0.0,93,0.00,CLR,,0.00,WeatherDisplay:10.37,2013-06-04 12:49:00,
2013-06-04 05:54:00,46.9,45.0,29.48,East,90,0.0,0.0,93,0.00,CLR,,0.00,WeatherDisplay:10.37,2013-06-04 12:54:00,
2013-06-04 05:59:00,46.9,45.0,29.48,East,90,0.0,0.0,93,0.00,CLR,,0.00,WeatherDisplay:10.37,2013-06-04 12:59:00,
2013-06-04 06:04:00,47.1,45.5,29.48,East,90,0.0,0.0,94,0.00,CLR,,0.00,WeatherDisplay:10.37,2013-06-04 13:04:00,
2013-06-04 06:09:00,47.3,45.7,29.47,East,90,0.0,0.0,94,0.00,CLR,,0.00,WeatherDisplay:10.37,2013-06-04 13:09:00,
2013-06-04 06:14:00,47.5,45.8,29.48,East,90,0.0,0.0,94,0.00,CLR,,0.00,WeatherDisplay:10.37,2013-06-04 13:14:00,
2013-06-04 06:19:00,47.7,46.0,29.48,East,90,0.0,0.0,94,0.00,CLR,,0.00,WeatherDisplay:10.37,2013-06-04 13:19:00,
2013-06-04 06:24:00,47.7,46.0,29.49,East,90,0.0,0.0,94,0.00,CLR,,0.00,WeatherDisplay:10.37,2013-06-04 13:24:00,
2013-06-04 06:29:00,48.0,46.4,29.48,East,90,0.0,0.0,94,0.00,CLR,,0.00,WeatherDisplay:10.37,2013-06-04 13:29:00,
2013-06-04 06:34:00,48.2,46.6,29.48,East,90,0.0,0.0,94,0.00,CLR,,0.00,WeatherDisplay:10.37,2013-06-04 13:34:00,
2013-06-04 06:39:00,48.4,46.7,29.47,SE,135,0.0,0.0,94,0.00,CLR,,0.00,WeatherDisplay:10.37,2013-06-04 13:39:00,
2013-06-04 06:44:00,48.7,47.1,29.48,South,180,0.0,0.0,94,0.00,CLR,,0.00,WeatherDisplay:10.37,2013-06-04 13:44:00,
2013-06-04 06:49:00,48.9,47.3,29.48,South,180,0.0,0.0,94,0.00,CLR,,0.00,WeatherDisplay:10.37,2013-06-04 13:49:00,
2013-06-04 06:54:00,49.3,47.6,29.48,South,180,0.0,0.0,94,0.00,CLR,,0.00,WeatherDisplay:10.37,2013-06-04 13:54:00,
2013-06-04 06:59:00,49.6,48.0,29.48,South,180,0.0,0.0,94,0.00,CLR,,0.00,WeatherDisplay:10.37,2013-06-04 13:59:00,
2013-06-04 07:04:00,50.0,48.3,29.48,SW,225,1.1,0.0,94,0.00,CLR,,0.00,WeatherDisplay:10.37,2013-06-04 14:04:00,
2013-06-04 07:09:00,50.2,48.5,29.48,SW,225,1.1,0.0,94,0.00,CLR,,0.00,WeatherDisplay:10.37,2013-06-04 14:09:00,
2013-06-04 07:14:00,50.5,48.9,29.48,West,270,1.1,0.0,94,0.00,CLR,,0.00,WeatherDisplay:10.37,2013-06-04 14:14:00,
2013-06-04 07:19:00,50.9,49.2,29.48,West,270,1.1,0.0,94,0.00,CLR,,0.00,WeatherDisplay:10.37,2013-06-04 14:19:00,
2013-06-04 07:24:00,51.1,49.4,29.48,West,270,0.0,0.0,94,0.00,CLR,,0.00,WeatherDisplay:10.37,2013-06-04 14:24:00,
2013-06-04 07:29:00,51.6,49.9,29.48,West,270,1.1,0.0,94,0.00,CLR,,0.00,WeatherDisplay:10.37,2013-06-04 14:29:00,
2013-06-04 07:34:00,52.0,50.3,29.48,West,270,1.1,0.0,94,0.00,CLR,,0.00,WeatherDisplay:10.37,2013-06-04 14:34:00,
2013-06-04 07:39:00,52.3,50.4,29.49,West,270,1.1,0.0,93,0.00,CLR,,0.00,WeatherDisplay:10.37,2013-06-04 14:39:00,
2013-06-04 07:44:00,52.7,50.7,29.49,West,270,1.1,0.0,93,0.00,CLR,,0.00,WeatherDisplay:10.37,2013-06-04 14:44:00,
2013-06-04 07:49:00,53.2,51.0,29.49,West,270,1.1,0.0,92,0.00,CLR,,0.00,WeatherDisplay:10.37,2013-06-04 14:49:00,
2013-06-04 07:54:00,53.6,51.3,29.49,West,270,1.1,0.0,92,0.00,CLR,,0.00,WeatherDisplay:10.37,2013-06-04 14:54:00,
2013-06-04 07:59:00,54.7,52.1,29.49,West,270,1.1,0.0,91,0.00,CLR,,0.00,WeatherDisplay:10.37,2013-06-04 14:59:00,
2013-06-04 08:04:00,56.3,53.1,29.49,West,270,1.1,0.0,89,0.00,CLR,,0.00,WeatherDisplay:10.37,2013-06-04 15:04:00,
2013-06-04 08:09:00,59.0,55.1,29.49,West,270,0.0,0.0,87,0.00,CLR,,0.00,WeatherDisplay:10.37,2013-06-04 15:09:00,
2013-06-04 08:14:00,61.7,55.8,29.49,West,270,1.1,0.0,81,0.00,CLR,,0.00,WeatherDisplay:10.37,2013-06-04 15:14:00,
2013-06-04 08:19:00,63.3,55.6,29.49,West,270,1.1,0.0,76,0.00,CLR,,0.00,WeatherDisplay:10.37,2013-06-04 15:19:00,
2013-06-04 08:24:00,64.9,56.5,29.49,West,270,0.0,0.0,74,0.00,CLR,,0.00,WeatherDisplay:10.37,2013-06-04 15:24:00,
2013-06-04 08:29:00,66.6,56.1,29.49,West,270,0.0,0.0,69,0.00,CLR,,0.00,WeatherDisplay:10.37,2013-06-04 15:29:00,
2013-06-04 08:34:00,67.1,55.8,29.49,West,270,1.1,0.0,67,0.00,CLR,,0.00,WeatherDisplay:10.37,2013-06-04 15:34:00,
2013-06-04 08:39:00,67.3,55.5,29.49,West,270,1.1,0.0,66,0.00,CLR,,0.00,WeatherDisplay:10.37,2013-06-04 15:39:00,
2013-06-04 08:44:00,67.5,53.5,29.50,West,270,0.0,0.7,61,0.00,CLR,,0.00,WeatherDisplay:10.37,2013-06-04 15:44:00,
2013-06-04 08:49:00,66.4,53.4,29.49,West,270,1.1,0.0,63,0.00,CLR,,0.00,WeatherDisplay:10.37,2013-06-04 15:49:00,
2013-06-04 08:54:00,66.2,53.2,29.49,West,270,1.1,0.0,63,0.00,CLR,,0.00,WeatherDisplay:10.37,2013-06-04 15:54:00,
2013-06-04 08:59:00,66.7,54.2,29.49,West,270,1.1,0.0,64,0.00,CLR,,0.00,WeatherDisplay:10.37,2013-06-04 15:59:00,
2013-06-04 09:04:00,69.1,56.4,29.48,West,270,1.1,0.0,64,0.00,CLR,,0.00,WeatherDisplay:10.37,2013-06-04 16:04:00,
2013-06-04 09:09:00,70.0,54.0,29.49,West,270,3.5,3.5,57,0.00,CLR,,0.00,WeatherDisplay:10.37,2013-06-04 16:09:00,
2013-06-04 09:14:00,69.6,53.7,29.49,West,270,1.1,1.6,57,0.00,CLR,,0.00,WeatherDisplay:10.37,2013-06-04 16:14:00,
2013-06-04 09:19:00,69.4,54.0,29.49,NW,315,2.3,2.3,58,0.00,CLR,,0.00,WeatherDisplay:10.37,2013-06-04 16:19:00,
2013-06-04 09:25:00,69.4,54.5,29.49,West,270,2.3,2.3,59,0.00,CLR,,0.00,WeatherDisplay:10.37,2013-06-04 16:25:00,
2013-06-04 09:30:00,69.8,54.8,29.49,West,270,2.3,2.3,59,0.00,CLR,,0.00,WeatherDisplay:10.37,2013-06-04 16:30:00,
2013-06-04 09:35:00,70.7,55.7,29.48,North,0,1.1,0.0,59,0.00,CLR,,0.00,WeatherDisplay:10.37,2013-06-04 16:35:00,
2013-06-04 09:40:00,71.6,56.5,29.48,WNW,287,0.0,0.0,59,0.00,CLR,CLR,0.00,WeatherDisplay:10.37,2013-06-04 16:40:00,
2013-06-04 09:45:00,72.9,55.7,29.48,WNW,300,1.0,0.0,55,0.00,CLR,CLR,0.00,WeatherDisplay:10.37,2013-06-04 16:45:00,
2013-06-04 09:50:00,72.5,54.4,29.48,West,270,1.1,1.1,53,0.00,CLR,,0.00,WeatherDisplay:10.37,2013-06-04 16:50:00,
2013-06-04 09:55:00,72.1,55.1,29.48,West,264,0.0,0.0,55,0.00,CLR,CLR,0.00,WeatherDisplay:10.37,2013-06-04 16:55:00,
2013-06-04 10:00:00,73.4,54.7,29.48,SW,225,2.3,2.3,52,0.00,CLR,,0.00,WeatherDisplay:10.37,2013-06-04 17:00:00,
2013-06-04 10:05:00,73.5,54.8,29.48,West,261,2.0,0.0,52,0.00,CLR,CLR,0.00,WeatherDisplay:10.37,2013-06-04 17:05:00,
2013-06-04 10:10:00,72.7,56.1,29.48,West,270,1.1,0.0,56,0.00,CLR,,0.00,WeatherDisplay:10.37,2013-06-04 17:10:00,
2013-06-04 10:14:00,73.0,55.9,29.48,East,90,2.3,0.0,55,0.00,CLR,,0.00,WeatherDisplay:10.37,2013-06-04 17:14:00,
2013-06-04 10:20:00,73.6,56.4,29.48,West,270,2.3,0.0,55,0.00,CLR,,0.00,WeatherDisplay:10.37,2013-06-04 17:20:00,
2013-06-04 10:25:00,73.6,55.9,29.48,SW,225,3.5,3.5,54,0.00,CLR,,0.00,WeatherDisplay:10.37,2013-06-04 17:25:00,
2013-06-04 10:30:00,73.2,56.6,29.48,West,270,3.5,0.0,56,0.00,CLR,,0.00,WeatherDisplay:10.37,2013-06-04 17:30:00,
2013-06-04 10:35:00,73.6,56.4,29.48,WSW,254,1.0,0.0,55,0.00,CLR,CLR,0.00,WeatherDisplay:10.37,2013-06-04 17:35:00,
2013-06-04 10:40:00,73.6,56.9,29.47,West,270,2.3,0.0,56,0.00,CLR,,0.00,WeatherDisplay:10.37,2013-06-04 17:40:00,
2013-06-04 10:45:00,73.9,55.7,29.48,West,270,1.0,0.0,53,0.00,CLR,CLR,0.00,WeatherDisplay:10.37,2013-06-04 17:45:00,
2013-06-04 10:50:00,73.7,56.5,29.47,West,268,0.0,0.0,55,0.00,CLR,CLR,0.00,WeatherDisplay:10.37,2013-06-04 17:50:00,
2013-06-04 10:55:00,73.4,55.7,29.47,West,271,1.0,0.0,54,0.00,CLR,CLR,0.00,WeatherDisplay:10.37,2013-06-04 17:55:00,
2013-06-04 11:00:00,74.3,57.1,29.48,West,276,1.0,0.0,55,0.00,CLR,CLR,0.00,WeatherDisplay:10.37,2013-06-04 18:00:00,
2013-06-04 11:05:00,75.4,57.6,29.47,West,261,0.0,0.0,54,0.00,CLR,CLR,0.00,WeatherDisplay:10.37,2013-06-04 18:05:00,
2013-06-04 11:10:00,76.1,57.7,29.48,WSW,242,1.0,0.0,53,0.00,CLR,CLR,0.00,WeatherDisplay:10.37,2013-06-04 18:10:00,
2013-06-04 11:15:00,76.1,57.2,29.47,West,263,2.0,0.0,52,0.00,CLR,CLR,0.00,WeatherDisplay:10.37,2013-06-04 18:15:00,
2013-06-04 11:20:00,75.7,56.9,29.47,West,270,1.1,0.0,52,0.00,CLR,,0.00,WeatherDisplay:10.37,2013-06-04 18:20:00,
2013-06-04 11:25:00,76.6,58.2,29.48,West,270,1.1,0.0,53,0.00,CLR,,0.00,WeatherDisplay:10.37,2013-06-04 18:25:00,
2013-06-04 11:30:00,77.0,58.0,29.48,West,273,1.0,0.0,52,0.00,CLR,CLR,0.00,WeatherDisplay:10.37,2013-06-04 18:30:00,
2013-06-04 11:35:00,76.3,56.8,29.48,West,270,2.3,2.3,51,0.00,CLR,,0.00,WeatherDisplay:10.37,2013-06-04 18:35:00,
2013-06-04 11:40:00,76.3,57.4,29.48,West,270,3.5,3.5,52,0.00,CLR,,0.00,WeatherDisplay:10.37,2013-06-04 18:40:00,
2013-06-04 11:45:00,76.0,56.6,29.48,West,270,2.0,0.0,51,0.00,CLR,CLR,0.00,WeatherDisplay:10.37,2013-06-04 18:45:00,
2013-06-04 11:50:00,76.3,57.9,29.48,NW,315,2.3,2.3,53,0.00,CLR,,0.00,WeatherDisplay:10.37,2013-06-04 18:50:00,
2013-06-04 11:55:00,75.9,55.4,29.48,West,270,4.6,4.6,49,0.00,CLR,,0.00,WeatherDisplay:10.37,2013-06-04 18:55:00,
2013-06-04 12:00:00,75.6,56.7,29.47,West,270,3.5,3.5,52,0.00,CLR,,0.00,WeatherDisplay:10.37,2013-06-04 19:00:00,
2013-06-04 12:05:00,75.2,56.4,29.47,West,270,4.6,4.6,52,0.00,CLR,,0.00,WeatherDisplay:10.37,2013-06-04 19:05:00,
2013-06-04 12:10:00,74.5,57.3,29.47,WNW,292,5.8,5.8,55,0.00,CLR,,0.00,WeatherDisplay:10.37,2013-06-04 19:10:00,
2013-06-04 12:15:00,73.8,58.1,29.47,SW,225,2.3,2.3,58,0.00,CLR,,0.00,WeatherDisplay:10.37,2013-06-04 19:15:00,
2013-06-04 12:20:00,73.9,58.7,29.47,West,270,5.8,5.8,59,0.00,CLR,,0.00,WeatherDisplay:10.37,2013-06-04 19:20:00,
2013-06-04 12:25:00,74.3,58.6,29.47,West,270,3.5,3.5,58,0.00,CLR,,0.00,WeatherDisplay:10.37,2013-06-04 19:25:00,
2013-06-04 12:30:00,74.3,59.5,29.47,West,270,3.5,3.5,60,0.00,CLR,,0.00,WeatherDisplay:10.37,2013-06-04 19:30:00,
2013-06-04 12:35:00,74.7,58.9,29.46,West,270,3.5,3.5,58,0.00,CLR,,0.00,WeatherDisplay:10.37,2013-06-04 19:35:00,
2013-06-04 12:40:00,75.2,59.4,29.46,West,270,3.5,3.5,58,0.00,CLR,,0.00,WeatherDisplay:10.37,2013-06-04 19:40:00,
2013-06-04 12:45:00,75.4,59.1,29.46,West,270,5.8,5.8,57,0.00,CLR,,0.00,WeatherDisplay:10.37,2013-06-04 19:45:00,
2013-06-04 12:50:00,75.2,59.9,29.46,NW,315,3.5,3.5,59,0.00,CLR,,0.00,WeatherDisplay:10.37,2013-06-04 19:50:00,
2013-06-04 12:55:00,75.7,59.4,29.46,NW,315,3.5,3.5,57,0.00,CLR,,0.00,WeatherDisplay:10.37,2013-06-04 19:55:00,
2013-06-04 13:00:00,76.5,58.6,29.45,West,270,3.5,3.5,54,0.00,CLR,,0.00,WeatherDisplay:10.37,2013-06-04 20:00:00,
2013-06-04 13:05:00,76.3,58.9,29.46,West,270,2.3,2.3,55,0.00,CLR,,0.00,WeatherDisplay:10.37,2013-06-04 20:05:00,
2013-06-04 13:10:00,76.5,59.1,29.46,West,270,3.5,3.5,55,0.00,CLR,,0.00,WeatherDisplay:10.37,2013-06-04 20:10:00,
2013-06-04 13:15:00,77.2,59.8,29.45,SW,225,3.5,3.5,55,0.00,CLR,,0.00,WeatherDisplay:10.37,2013-06-04 20:15:00,
2013-06-04 13:20:00,77.7,59.2,29.45,West,270,3.5,3.5,53,0.00,CLR,,0.00,WeatherDisplay:10.37,2013-06-04 20:20:00,
2013-06-04 13:25:00,77.7,59.2,29.45,West,270,3.5,3.5,53,0.00,CLR,,0.00,WeatherDisplay:10.37,2013-06-04 20:25:00,
2013-06-04 13:30:00,77.2,58.2,29.45,West,270,5.8,5.8,52,0.00,CLR,,0.00,WeatherDisplay:10.37,2013-06-04 20:30:00,
2013-06-04 13:35:00,76.3,58.4,29.45,West,270,5.8,5.8,54,0.00,CLR,,0.00,WeatherDisplay:10.37,2013-06-04 20:35:00,
2013-06-04 13:40:00,76.5,59.1,29.45,West,270,3.5,3.5,55,0.00,CLR,,0.00,WeatherDisplay:10.37,2013-06-04 20:40:00,
2013-06-04 13:45:00,76.3,58.9,29.45,SW,225,5.8,5.8,55,0.00,CLR,,0.00,WeatherDisplay:10.37,2013-06-04 20:45:00,
2013-06-04 13:50:00,76.6,58.7,29.44,NW,315,6.9,6.9,54,0.00,CLR,,0.00,WeatherDisplay:10.37,2013-06-04 20:50:00,
2013-06-04 13:55:00,76.3,57.9,29.45,West,270,8.1,8.1,53,0.00,CLR,,0.00,WeatherDisplay:10.37,2013-06-04 20:55:00,
2013-06-04 14:00:00,76.5,58.6,29.45,SW,225,5.8,5.8,54,0.00,CLR,,0.00,WeatherDisplay:10.37,2013-06-04 21:00:00,
2013-06-04 14:05:00,76.5,58.6,29.44,West,270,5.8,5.8,54,0.00,CLR,,0.00,WeatherDisplay:10.37,2013-06-04 21:05:00,
2013-06-04 14:10:00,77.0,59.1,29.44,West,270,3.5,3.5,54,0.00,CLR,,0.00,WeatherDisplay:10.37,2013-06-04 21:10:00,
2013-06-04 14:15:00,77.2,58.7,29.44,SW,225,3.5,3.5,53,0.00,CLR,,0.00,WeatherDisplay:10.37,2013-06-04 21:15:00,
2013-06-04 14:20:00,77.0,58.6,29.44,West,270,5.8,5.8,53,0.00,CLR,,0.00,WeatherDisplay:10.37,2013-06-04 21:20:00,
2013-06-04 14:25:00,77.4,58.4,29.44,West,270,5.8,5.8,52,0.00,CLR,,0.00,WeatherDisplay:10.37,2013-06-04 21:25:00,
2013-06-04 14:30:00,77.7,58.7,29.44,West,270,3.5,3.5,52,0.00,CLR,,0.00,WeatherDisplay:10.37,2013-06-04 21:30:00,
2013-06-04 14:35:00,77.7,58.7,29.44,West,270,5.8,5.8,52,0.00,CLR,,0.00,WeatherDisplay:10.37,2013-06-04 21:35:00,
2013-06-04 14:40:00,78.1,58.5,29.44,West,270,5.8,5.8,51,0.00,CLR,,0.00,WeatherDisplay:10.37,2013-06-04 21:40:00,
2013-06-04 14:45:00,78.1,57.9,29.44,West,270,8.1,8.1,50,0.00,CLR,,0.00,WeatherDisplay:10.37,2013-06-04 21:45:00,
2013-06-04 14:50:00,77.7,58.1,29.44,West,270,5.8,5.8,51,0.00,CLR,,0.00,WeatherDisplay:10.37,2013-06-04 21:50:00,
2013-06-04 14:55:00,78.4,59.4,29.43,West,270,4.6,4.6,52,0.00,CLR,,0.00,WeatherDisplay:10.37,2013-06-04 21:55:00,
2013-06-04 15:00:00,79.3,59.1,29.43,West,270,3.5,3.5,50,0.00,CLR,,0.00,WeatherDisplay:10.37,2013-06-04 22:00:00,
2013-06-04 15:05:00,79.5,58.7,29.43,West,270,4.6,4.6,49,0.00,CLR,,0.00,WeatherDisplay:10.37,2013-06-04 22:05:00,
2013-06-04 15:10:00,79.3,57.4,29.44,SW,225,4.6,4.6,47,0.00,CLR,,0.00,WeatherDisplay:10.37,2013-06-04 22:10:00,
2013-06-04 15:15:00,79.3,58.5,29.43,West,270,3.5,0.0,49,0.00,CLR,,0.00,WeatherDisplay:10.37,2013-06-04 22:15:00,
2013-06-04 15:20:00,79.7,57.7,29.43,West,270,5.4,5.4,47,0.00,CLR,,0.00,WeatherDisplay:10.37,2013-06-04 22:20:00,
2013-06-04 15:25:00,79.5,57.5,29.43,SW,225,3.5,0.0,47,0.00,CLR,,0.00,WeatherDisplay:10.37,2013-06-04 22:25:00,
2013-06-04 15:30:00,80.1,58.6,29.43,West,270,3.5,3.5,48,0.00,CLR,,0.00,WeatherDisplay:10.37,2013-06-04 22:30:00,
2013-06-04 15:35:00,80.8,59.3,29.43,West,270,2.3,2.3,48,0.00,CLR,,0.00,WeatherDisplay:10.37,2013-06-04 22:35:00,
2013-06-04 15:40:00,81.0,58.2,29.42,West,270,3.5,3.5,46,0.00,CLR,,0.00,WeatherDisplay:10.37,2013-06-04 22:40:00,
2013-06-04 15:45:00,80.6,56.7,29.42,West,270,3.5,3.5,44,0.00,CLR,,0.00,WeatherDisplay:10.37,2013-06-04 22:45:00,
2013-06-04 15:50:00,79.7,58.3,29.42,West,270,3.5,3.5,48,0.00,CLR,,0.00,WeatherDisplay:10.37,2013-06-04 22:50:00,
2013-06-04 15:55:00,79.2,57.8,29.43,West,270,1.1,2.2,48,0.00,CLR,,0.00,WeatherDisplay:10.37,2013-06-04 22:55:00,
2013-06-04 16:00:00,78.8,56.9,29.43,West,270,4.6,4.6,47,0.00,CLR,,0.00,WeatherDisplay:10.37,2013-06-04 23:00:00,
2013-06-04 16:05:00,78.1,56.8,29.43,West,270,4.6,4.6,48,0.00,CLR,,0.00,WeatherDisplay:10.37,2013-06-04 23:05:00,
2013-06-04 16:10:00,77.7,57.6,29.43,West,270,3.5,3.5,50,0.00,CLR,,0.00,WeatherDisplay:10.37,2013-06-04 23:10:00,
2013-06-04 16:15:00,77.0,56.9,29.42,West,270,5.8,5.8,50,0.00,CLR,,0.00,WeatherDisplay:10.37,2013-06-04 23:15:00,
2013-06-04 16:20:00,77.0,55.2,29.42,West,270,3.5,3.5,47,0.00,CLR,,0.00,WeatherDisplay:10.37,2013-06-04 23:20:00,
2013-06-04 16:25:00,76.8,55.1,29.42,West,270,3.5,3.5,47,0.00,CLR,,0.00,WeatherDisplay:10.37,2013-06-04 23:25:00,
2013-06-04 16:30:00,76.6,54.9,29.42,West,270,5.8,5.8,47,0.00,CLR,,0.00,WeatherDisplay:10.37,2013-06-04 23:30:00,
2013-06-04 16:35:00,76.5,55.3,29.42,West,270,3.5,3.5,48,0.00,CLR,,0.00,WeatherDisplay:10.37,2013-06-04 23:35:00,
2013-06-04 16:40:00,76.3,55.1,29.42,NW,315,4.6,4.6,48,0.00,CLR,,0.00,WeatherDisplay:10.37,2013-06-04 23:40:00,
2013-06-04 16:45:00,75.9,55.9,29.42,SW,225,4.6,4.6,50,0.00,CLR,,0.00,WeatherDisplay:10.37,2013-06-04 23:45:00,
2013-06-04 16:50:00,76.3,56.8,29.42,West,270,3.5,3.5,51,0.00,CLR,,0.00,WeatherDisplay:10.37,2013-06-04 23:50:00,
2013-06-04 16:55:00,76.5,57.0,29.42,SW,225,3.5,3.5,51,0.00,CLR,,0.00,WeatherDisplay:10.37,2013-06-04 23:55:00,
2013-06-04 17:00:00,76.6,56.6,29.41,West,270,3.5,3.5,50,0.00,CLR,,0.00,WeatherDisplay:10.37,2013-06-05 00:00:00,
2013-06-04 17:05:00,77.0,57.5,29.42,West,270,3.5,3.5,51,0.00,CLR,,0.00,WeatherDisplay:10.37,2013-06-05 00:05:00,
2013-06-04 17:10:00,77.5,56.9,29.41,West,270,5.8,5.8,49,0.00,CLR,,0.00,WeatherDisplay:10.37,2013-06-05 00:10:00,
2013-06-04 17:15:00,78.1,56.8,29.41,West,270,5.8,0.0,48,0.00,CLR,,0.00,WeatherDisplay:10.37,2013-06-05 00:15:00,
2013-06-04 17:21:00,78.6,57.3,29.41,West,270,6.9,6.9,48,0.00,CLR,,0.00,WeatherDisplay:10.37,2013-06-05 00:21:00,
2013-06-04 17:26:00,79.0,57.6,29.41,West,270,6.9,6.9,48,0.00,CLR,,0.00,WeatherDisplay:10.37,2013-06-05 00:26:00,
2013-06-04 17:31:00,79.9,59.0,29.41,West,270,2.3,2.3,49,0.00,CLR,,0.00,WeatherDisplay:10.37,2013-06-05 00:31:00,
2013-06-04 17:36:00,80.4,57.7,29.40,West,270,5.8,5.8,46,0.00,CLR,,0.00,WeatherDisplay:10.37,2013-06-05 00:36:00,
2013-06-04 17:41:00,80.4,56.5,29.40,West,270,4.6,4.6,44,0.00,CLR,,0.00,WeatherDisplay:10.37,2013-06-05 00:41:00,
2013-06-04 17:46:00,80.6,57.9,29.40,West,270,3.5,3.5,46,0.00,CLR,,0.00,WeatherDisplay:10.37,2013-06-05 00:46:00,
2013-06-04 17:51:00,81.0,58.8,29.40,West,270,3.5,3.5,47,0.00,CLR,,0.00,WeatherDisplay:10.37,2013-06-05 00:51:00,
2013-06-04 17:56:00,81.0,58.8,29.40,West,270,1.1,0.0,47,0.00,CLR,,0.00,WeatherDisplay:10.37,2013-06-05 00:56:00,
2013-06-04 18:01:00,80.6,57.9,29.40,West,270,3.5,3.5,46,0.00,CLR,,0.00,WeatherDisplay:10.37,2013-06-05 01:01:00,
2013-06-04 18:06:00,79.7,57.1,29.40,West,270,4.6,4.6,46,0.00,CLR,,0.00,WeatherDisplay:10.37,2013-06-05 01:06:00,
2013-06-04 18:11:00,79.5,58.1,29.39,West,270,2.3,2.3,48,0.00,CLR,,0.00,WeatherDisplay:10.37,2013-06-05 01:11:00,
2013-06-04 18:16:00,80.1,58.6,29.39,West,270,2.3,2.3,48,0.00,CLR,,0.00,WeatherDisplay:10.37,2013-06-05 01:16:00,
2013-06-04 18:21:00,80.2,57.6,29.39,SW,225,5.8,5.8,46,0.00,CLR,,0.00,WeatherDisplay:10.37,2013-06-05 01:21:00,
2013-06-04 18:26:00,80.8,59.8,29.39,West,270,1.1,0.0,49,0.00,CLR,,0.00,WeatherDisplay:10.37,2013-06-05 01:26:00,
2013-06-04 18:31:00,80.4,58.3,29.39,West,270,3.5,3.5,47,0.00,CLR,,0.00,WeatherDisplay:10.37,2013-06-05 01:31:00,
2013-06-04 18:36:00,79.2,57.8,29.39,West,270,3.5,3.5,48,0.00,CLR,,0.00,WeatherDisplay:10.37,2013-06-05 01:36:00,
2013-06-04 18:41:00,78.8,58.6,29.39,West,270,2.3,2.3,50,0.00,CLR,,0.00,WeatherDisplay:10.37,2013-06-05 01:41:00,
2013-06-04 18:46:00,78.1,57.9,29.39,West,270,2.3,2.3,50,0.00,CLR,,0.00,WeatherDisplay:10.37,2013-06-05 01:46:00,
2013-06-04 18:51:00,77.2,57.1,29.39,West,270,4.6,4.6,50,0.00,CLR,,0.00,WeatherDisplay:10.37,2013-06-05 01:51:00,
2013-06-04 18:56:00,76.5,57.0,29.39,West,270,3.5,3.5,51,0.00,CLR,,0.00,WeatherDisplay:10.37,2013-06-05 01:56:00,
2013-06-04 19:01:00,75.6,57.2,29.39,West,270,4.6,4.6,53,0.00,CLR,,0.00,WeatherDisplay:10.37,2013-06-05 02:01:00,
2013-06-04 19:06:00,75.0,57.2,29.39,West,270,3.5,3.5,54,0.00,CLR,,0.00,WeatherDisplay:10.37,2013-06-05 02:06:00,
2013-06-04 19:12:00,73.8,56.6,29.39,West,270,4.6,4.6,55,0.00,CLR,,0.00,WeatherDisplay:10.37,2013-06-05 02:12:00,
2013-06-04 19:17:00,72.9,56.2,29.39,West,270,3.5,3.5,56,0.00,CLR,,0.00,WeatherDisplay:10.37,2013-06-05 02:17:00,
2013-06-04 19:22:00,72.5,55.9,29.39,West,270,5.8,5.8,56,0.00,CLR,,0.00,WeatherDisplay:10.37,2013-06-05 02:22:00,
2013-06-04 19:27:00,72.0,55.9,29.40,West,270,5.8,0.0,57,0.00,CLR,,0.00,WeatherDisplay:10.37,2013-06-05 02:27:00,
2013-06-04 19:32:00,71.6,55.6,29.39,SW,225,5.8,5.8,57,0.00,CLR,,0.00,WeatherDisplay:10.37,2013-06-05 02:32:00,
2013-06-04 19:37:00,71.1,55.1,29.39,West,270,4.6,4.6,57,0.00,CLR,,0.00,WeatherDisplay:10.37,2013-06-05 02:37:00,
2013-06-04 19:42:00,70.9,55.4,29.39,West,270,3.5,0.0,58,0.00,CLR,,0.00,WeatherDisplay:10.37,2013-06-05 02:42:00,
2013-06-04 19:47:00,70.9,55.8,29.40,SW,225,1.1,0.0,59,0.00,CLR,,0.00,WeatherDisplay:10.37,2013-06-05 02:47:00,
2013-06-04 19:52:00,70.5,55.5,29.40,West,270,3.5,0.0,59,0.00,CLR,,0.00,WeatherDisplay:10.37,2013-06-05 02:52:00,
2013-06-04 19:57:00,70.2,55.2,29.39,West,270,5.8,5.8,59,0.00,CLR,,0.00,WeatherDisplay:10.37,2013-06-05 02:57:00,
2013-06-04 20:02:00,69.6,55.1,29.39,West,270,3.5,3.5,60,0.00,CLR,,0.00,WeatherDisplay:10.37,2013-06-05 03:02:00,
2013-06-04 20:07:00,69.1,55.1,29.39,West,270,5.8,5.8,61,0.00,CLR,,0.00,WeatherDisplay:10.37,2013-06-05 03:07:00,
2013-06-04 20:12:00,68.4,54.4,29.40,NW,315,4.6,4.6,61,0.00,CLR,,0.00,WeatherDisplay:10.37,2013-06-05 03:12:00,
2013-06-04 20:17:00,68.0,54.5,29.40,West,270,3.5,0.0,62,0.00,CLR,,0.00,WeatherDisplay:10.37,2013-06-05 03:17:00,
2013-06-04 20:22:00,67.5,54.0,29.40,SW,225,2.3,2.3,62,0.00,CLR,,0.00,WeatherDisplay:10.37,2013-06-05 03:22:00,
2013-06-04 20:27:00,66.9,53.5,29.40,West,270,2.3,0.0,62,0.00,CLR,,0.00,WeatherDisplay:10.37,2013-06-05 03:27:00,
2013-06-04 20:32:00,66.4,52.5,29.40,West,270,2.3,2.3,61,0.00,CLR,,0.00,WeatherDisplay:10.37,2013-06-05 03:32:00,
2013-06-04 20:37:00,65.7,52.3,29.39,West,270,1.1,0.0,62,0.00,CLR,,0.00,WeatherDisplay:10.37,2013-06-05 03:37:00,
2013-06-04 20:42:00,65.3,51.9,29.39,SW,225,1.1,0.0,62,0.00,CLR,,0.00,WeatherDisplay:10.37,2013-06-05 03:42:00,
2013-06-04 20:47:00,64.8,51.4,29.39,West,270,4.6,4.6,62,0.00,CLR,,0.00,WeatherDisplay:10.37,2013-06-05 03:47:00,
2013-06-04 20:53:00,64.4,51.5,29.40,West,270,3.5,0.0,63,0.00,CLR,,0.00,WeatherDisplay:10.37,2013-06-05 03:53:00,
2013-06-04 20:58:00,63.9,51.0,29.40,SW,225,1.1,0.0,63,0.00,CLR,,0.00,WeatherDisplay:10.37,2013-06-05 03:58:00,
2013-06-04 21:01:00,63.7,50.8,29.40,West,270,3.8,3.8,63,0.00,CLR,,0.00,WeatherDisplay:10.37,2013-06-05 04:01:00,
2013-06-04 21:06:00,63.3,50.5,29.40,West,270,3.5,0.0,63,0.00,CLR,,0.00,WeatherDisplay:10.37,2013-06-05 04:06:00,
2013-06-04 21:11:00,63.1,50.8,29.41,SW,225,3.5,3.5,64,0.00,CLR,,0.00,WeatherDisplay:10.37,2013-06-05 04:11:00,
2013-06-04 21:16:00,62.8,50.4,29.41,West,270,3.5,0.0,64,0.00,CLR,,0.00,WeatherDisplay:10.37,2013-06-05 04:16:00,
2013-06-04 21:22:00,62.4,50.5,29.41,West,270,2.3,2.3,65,0.00,CLR,,0.00,WeatherDisplay:10.37,2013-06-05 04:22:00,
2013-06-04 21:27:00,62.1,50.2,29.41,West,270,1.1,0.0,65,0.00,CLR,,0.00,WeatherDisplay:10.37,2013-06-05 04:27:00,
2013-06-04 21:32:00,61.9,50.0,29.42,NW,315,3.5,3.5,65,0.00,CLR,,0.00,WeatherDisplay:10.37,2013-06-05 04:32:00,
2013-06-04 21:37:00,61.7,49.8,29.42,SW,225,1.1,0.0,65,0.00,CLR,,0.00,WeatherDisplay:10.37,2013-06-05 04:37:00,
2013-06-04 21:42:00,61.5,49.6,29.42,SW,225,0.0,0.0,65,0.00,CLR,,0.00,WeatherDisplay:10.37,2013-06-05 04:42:00,
2013-06-04 21:47:00,61.0,49.9,29.42,West,270,2.3,0.0,67,0.00,CLR,,0.00,WeatherDisplay:10.37,2013-06-05 04:47:00,
2013-06-04 21:52:00,60.8,49.8,29.42,SW,225,3.5,3.5,67,0.00,CLR,,0.00,WeatherDisplay:10.37,2013-06-05 04:52:00,
2013-06-04 21:57:00,60.6,49.6,29.42,SW,225,2.3,2.3,67,0.00,CLR,,0.00,WeatherDisplay:10.37,2013-06-05 04:57:00,
2013-06-04 22:02:00,60.6,49.6,29.42,West,270,3.5,3.5,67,0.00,CLR,,0.00,WeatherDisplay:10.37,2013-06-05 05:02:00,
2013-06-04 22:07:00,60.4,49.4,29.42,West,270,1.1,0.0,67,0.00,CLR,,0.00,WeatherDisplay:10.37,2013-06-05 05:07:00,
2013-06-04 22:12:00,59.9,49.3,29.42,West,270,0.0,0.0,68,0.00,CLR,,0.00,WeatherDisplay:10.37,2013-06-05 05:12:00,
2013-06-04 22:17:00,59.5,49.4,29.42,SW,225,0.0,0.0,69,0.00,CLR,,0.00,WeatherDisplay:10.37,2013-06-05 05:17:00,
2013-06-04 22:22:00,59.4,49.2,29.42,SW,225,1.1,0.0,69,0.00,CLR,,0.00,WeatherDisplay:10.37,2013-06-05 05:22:00,
2013-06-04 22:27:00,59.2,49.0,29.42,SW,225,0.0,0.0,69,0.00,CLR,,0.00,WeatherDisplay:10.37,2013-06-05 05:27:00,
2013-06-04 22:32:00,58.8,48.7,29.42,SW,225,0.0,0.0,69,0.00,CLR,,0.00,WeatherDisplay:10.37,2013-06-05 05:32:00,
2013-06-04 22:37:00,58.6,48.5,29.42,SW,225,1.1,0.0,69,0.00,CLR,,0.00,WeatherDisplay:10.37,2013-06-05 05:37:00,
2013-06-04 22:42:00,58.6,48.1,29.42,SW,225,1.1,0.0,68,0.00,CLR,,0.00,WeatherDisplay:10.37,2013-06-05 05:42:00,
2013-06-04 22:47:00,58.6,48.1,29.42,SW,225,1.1,0.0,68,0.00,CLR,,0.00,WeatherDisplay:10.37,2013-06-05 05:47:00,
2013-06-04 22:52:00,58.6,47.3,29.42,West,270,2.3,0.0,66,0.00,CLR,,0.00,WeatherDisplay:10.37,2013-06-05 05:52:00,
2013-06-04 22:57:00,59.0,47.2,29.42,West,270,1.1,0.0,65,0.00,CLR,,0.00,WeatherDisplay:10.37,2013-06-05 05:57:00,
2013-06-04 23:02:00,59.2,47.0,29.42,West,270,1.1,0.0,64,0.00,CLR,,0.00,WeatherDisplay:10.37,2013-06-05 06:02:00,
2013-06-04 23:07:00,58.8,47.1,29.42,West,270,1.1,0.0,65,0.00,CLR,,0.00,WeatherDisplay:10.37,2013-06-05 06:07:00,
2013-06-04 23:12:00,58.6,46.9,29.42,NE,45,1.1,0.0,65,0.00,CLR,,0.00,WeatherDisplay:10.37,2013-06-05 06:12:00,
2013-06-04 23:17:00,58.3,46.2,29.42,NE,45,1.1,0.0,64,0.00,CLR,,0.00,WeatherDisplay:10.37,2013-06-05 06:17:00,
2013-06-04 23:22:00,57.9,45.8,29.42,NE,45,0.0,0.0,64,0.00,CLR,,0.00,WeatherDisplay:10.37,2013-06-05 06:22:00,
2013-06-04 23:27:00,57.7,46.0,29.42,NE,45,0.0,0.0,65,0.00,CLR,,0.00,WeatherDisplay:10.37,2013-06-05 06:27:00,
2013-06-04 23:32:00,57.6,46.3,29.42,SW,225,0.0,0.0,66,0.00,CLR,,0.00,WeatherDisplay:10.37,2013-06-05 06:32:00,
2013-06-04 23:37:00,57.4,46.1,29.42,SW,225,1.1,0.0,66,0.00,CLR,,0.00,WeatherDisplay:10.37,2013-06-05 06:37:00,
2013-06-04 23:42:00,57.6,46.3,29.42,NW,315,1.1,0.0,66,0.00,CLR,,0.00,WeatherDisplay:10.37,2013-06-05 06:42:00,
2013-06-04 23:47:00,57.6,45.9,29.42,West,270,0.0,0.0,65,0.00,CLR,,0.00,WeatherDisplay:10.37,2013-06-05 06:47:00,
2013-06-04 23:52:00,57.7,46.5,29.42,NW,315,1.1,0.0,66,0.00,CLR,,0.00,WeatherDisplay:10.37,2013-06-05 06:52:00,
2013-06-04 23:57:00,57.9,45.8,29.42,West,270,3.1,3.1,64,0.00,CLR,,0.00,WeatherDisplay:10.37,2013-06-05 06:57:00,